sensor_id;sensor_type;location;lat;lon;timestamp;P1;durP1;ratioP1;P2;durP2;ratioP2
14599;SDS011;7386;45.586;12.854;2023-05-07T00:00:19;14.23;;;12.55;;
14599;SDS011;7386;45.586;12.854;2023-05-07T00:02:48;16.30;;;13.13;;
14599;SDS011;7386;45.586;12.854;2023-05-07T00:05:17;15.48;;;13.15;;
14599;SDS011;7386;45.586;12.854;2023-05-07T00:07:46;15.57;;;13.25;;
14599;SDS011;7386;45.586;12.854;2023-05-07T00:10:16;15.43;;;13.68;;
14599;SDS011;7386;45.586;12.854;2023-05-07T00:12:44;14.43;;;12.85;;
14599;SDS011;7386;45.586;12.854;2023-05-07T00:15:13;16.50;;;14.40;;
14599;SDS011;7386;45.586;12.854;2023-05-07T00:17:41;14.95;;;13.38;;
14599;SDS011;7386;45.586;12.854;2023-05-07T00:20:10;14.68;;;13.15;;
14599;SDS011;7386;45.586;12.854;2023-05-07T00:22:39;15.85;;;13.23;;
14599;SDS011;7386;45.586;12.854;2023-05-07T00:25:07;15.45;;;13.77;;
14599;SDS011;7386;45.586;12.854;2023-05-07T00:27:37;15.50;;;12.65;;
14599;SDS011;7386;45.586;12.854;2023-05-07T00:30:06;14.30;;;12.70;;
14599;SDS011;7386;45.586;12.854;2023-05-07T00:32:36;15.65;;;13.23;;
14599;SDS011;7386;45.586;12.854;2023-05-07T00:35:05;14.97;;;12.80;;
14599;SDS011;7386;45.586;12.854;2023-05-07T00:37:34;15.23;;;12.87;;
14599;SDS011;7386;45.586;12.854;2023-05-07T00:40:03;15.32;;;12.70;;
14599;SDS011;7386;45.586;12.854;2023-05-07T00:42:33;14.73;;;12.97;;
14599;SDS011;7386;45.586;12.854;2023-05-07T00:45:03;14.20;;;12.50;;
14599;SDS011;7386;45.586;12.854;2023-05-07T00:47:32;13.73;;;12.27;;
14599;SDS011;7386;45.586;12.854;2023-05-07T00:50:01;15.20;;;12.80;;
14599;SDS011;7386;45.586;12.854;2023-05-07T00:52:29;13.90;;;12.20;;
14599;SDS011;7386;45.586;12.854;2023-05-07T00:54:58;13.95;;;12.35;;
14599;SDS011;7386;45.586;12.854;2023-05-07T00:57:28;13.77;;;12.23;;
14599;SDS011;7386;45.586;12.854;2023-05-07T00:59:56;16.90;;;13.37;;
14599;SDS011;7386;45.586;12.854;2023-05-07T01:02:26;15.23;;;13.63;;
14599;SDS011;7386;45.586;12.854;2023-05-07T01:04:54;17.60;;;13.37;;
14599;SDS011;7386;45.586;12.854;2023-05-07T01:07:23;14.67;;;12.57;;
14599;SDS011;7386;45.586;12.854;2023-05-07T01:09:52;14.83;;;13.23;;
14599;SDS011;7386;45.586;12.854;2023-05-07T01:12:21;15.23;;;12.80;;
14599;SDS011;7386;45.586;12.854;2023-05-07T01:14:49;14.03;;;12.53;;
14599;SDS011;7386;45.586;12.854;2023-05-07T01:17:18;15.07;;;12.43;;
14599;SDS011;7386;45.586;12.854;2023-05-07T01:19:48;14.70;;;12.77;;
14599;SDS011;7386;45.586;12.854;2023-05-07T01:22:17;15.00;;;12.70;;
14599;SDS011;7386;45.586;12.854;2023-05-07T01:24:50;19.38;;;13.55;;
14599;SDS011;7386;45.586;12.854;2023-05-07T01:27:20;16.27;;;13.90;;
14599;SDS011;7386;45.586;12.854;2023-05-07T01:29:48;16.97;;;14.53;;
14599;SDS011;7386;45.586;12.854;2023-05-07T01:32:17;18.45;;;14.80;;
14599;SDS011;7386;45.586;12.854;2023-05-07T01:34:48;17.10;;;13.82;;
14599;SDS011;7386;45.586;12.854;2023-05-07T01:37:17;18.83;;;15.67;;
14599;SDS011;7386;45.586;12.854;2023-05-07T01:39:46;17.20;;;14.83;;
14599;SDS011;7386;45.586;12.854;2023-05-07T01:42:16;18.97;;;15.13;;
14599;SDS011;7386;45.586;12.854;2023-05-07T01:44:44;16.88;;;14.70;;
14599;SDS011;7386;45.586;12.854;2023-05-07T01:47:13;17.20;;;13.97;;
14599;SDS011;7386;45.586;12.854;2023-05-07T01:49:42;16.73;;;14.80;;
14599;SDS011;7386;45.586;12.854;2023-05-07T01:52:10;16.08;;;14.18;;
14599;SDS011;7386;45.586;12.854;2023-05-07T01:54:39;16.20;;;13.80;;
14599;SDS011;7386;45.586;12.854;2023-05-07T01:57:07;16.17;;;14.13;;
14599;SDS011;7386;45.586;12.854;2023-05-07T01:59:37;18.73;;;15.95;;
14599;SDS011;7386;45.586;12.854;2023-05-07T02:02:06;20.07;;;15.90;;
14599;SDS011;7386;45.586;12.854;2023-05-07T02:04:34;19.00;;;15.27;;
14599;SDS011;7386;45.586;12.854;2023-05-07T02:07:03;19.23;;;15.47;;
14599;SDS011;7386;45.586;12.854;2023-05-07T02:09:31;18.53;;;15.97;;
14599;SDS011;7386;45.586;12.854;2023-05-07T02:12:00;19.13;;;16.00;;
14599;SDS011;7386;45.586;12.854;2023-05-07T02:14:28;18.10;;;15.10;;
14599;SDS011;7386;45.586;12.854;2023-05-07T02:16:58;17.52;;;15.32;;
14599;SDS011;7386;45.586;12.854;2023-05-07T02:19:26;19.50;;;16.73;;
14599;SDS011;7386;45.586;12.854;2023-05-07T02:21:55;21.50;;;17.58;;
14599;SDS011;7386;45.586;12.854;2023-05-07T02:24:23;21.30;;;18.53;;
14599;SDS011;7386;45.586;12.854;2023-05-07T02:26:52;20.38;;;17.80;;
14599;SDS011;7386;45.586;12.854;2023-05-07T02:29:20;20.87;;;17.70;;
14599;SDS011;7386;45.586;12.854;2023-05-07T02:31:48;19.43;;;16.90;;
14599;SDS011;7386;45.586;12.854;2023-05-07T02:34:20;20.73;;;17.20;;
14599;SDS011;7386;45.586;12.854;2023-05-07T02:36:49;20.23;;;17.43;;
14599;SDS011;7386;45.586;12.854;2023-05-07T02:39:17;20.27;;;16.60;;
14599;SDS011;7386;45.586;12.854;2023-05-07T02:41:46;21.70;;;18.30;;
14599;SDS011;7386;45.586;12.854;2023-05-07T02:44:14;20.37;;;17.57;;
14599;SDS011;7386;45.586;12.854;2023-05-07T02:46:43;23.63;;;18.90;;
14599;SDS011;7386;45.586;12.854;2023-05-07T02:49:11;23.53;;;20.10;;
14599;SDS011;7386;45.586;12.854;2023-05-07T02:51:41;24.93;;;19.70;;
14599;SDS011;7386;45.586;12.854;2023-05-07T02:54:09;23.77;;;20.07;;
14599;SDS011;7386;45.586;12.854;2023-05-07T02:56:38;25.83;;;19.70;;
14599;SDS011;7386;45.586;12.854;2023-05-07T02:59:06;23.93;;;20.20;;
14599;SDS011;7386;45.586;12.854;2023-05-07T03:01:34;25.80;;;20.38;;
14599;SDS011;7386;45.586;12.854;2023-05-07T03:04:03;25.10;;;21.13;;
14599;SDS011;7386;45.586;12.854;2023-05-07T03:06:32;24.73;;;21.03;;
14599;SDS011;7386;45.586;12.854;2023-05-07T03:09:02;28.57;;;20.33;;
14599;SDS011;7386;45.586;12.854;2023-05-07T03:11:30;21.83;;;19.00;;
14599;SDS011;7386;45.586;12.854;2023-05-07T03:13:59;22.77;;;19.20;;
14599;SDS011;7386;45.586;12.854;2023-05-07T03:16:27;19.53;;;16.63;;
14599;SDS011;7386;45.586;12.854;2023-05-07T03:18:56;20.77;;;16.63;;
14599;SDS011;7386;45.586;12.854;2023-05-07T03:21:25;19.53;;;16.50;;
14599;SDS011;7386;45.586;12.854;2023-05-07T03:23:53;20.03;;;17.27;;
14599;SDS011;7386;45.586;12.854;2023-05-07T03:26:23;23.20;;;19.63;;
14599;SDS011;7386;45.586;12.854;2023-05-07T03:28:52;23.27;;;18.70;;
14599;SDS011;7386;45.586;12.854;2023-05-07T03:31:21;26.83;;;21.37;;
14599;SDS011;7386;45.586;12.854;2023-05-07T03:33:50;24.63;;;20.67;;
14599;SDS011;7386;45.586;12.854;2023-05-07T03:36:19;24.93;;;20.57;;
14599;SDS011;7386;45.586;12.854;2023-05-07T03:38:48;27.80;;;22.10;;
14599;SDS011;7386;45.586;12.854;2023-05-07T03:41:16;26.03;;;21.53;;
14599;SDS011;7386;45.586;12.854;2023-05-07T03:43:46;27.97;;;21.77;;
14599;SDS011;7386;45.586;12.854;2023-05-07T03:46:14;27.63;;;20.97;;
14599;SDS011;7386;45.586;12.854;2023-05-07T03:48:43;24.07;;;20.57;;
14599;SDS011;7386;45.586;12.854;2023-05-07T03:51:11;26.73;;;21.93;;
14599;SDS011;7386;45.586;12.854;2023-05-07T03:53:39;29.67;;;22.50;;
14599;SDS011;7386;45.586;12.854;2023-05-07T03:56:08;28.90;;;21.73;;
14599;SDS011;7386;45.586;12.854;2023-05-07T03:58:36;25.53;;;21.60;;
14599;SDS011;7386;45.586;12.854;2023-05-07T04:01:06;26.83;;;21.50;;
14599;SDS011;7386;45.586;12.854;2023-05-07T04:03:35;25.30;;;21.90;;
14599;SDS011;7386;45.586;12.854;2023-05-07T04:06:03;27.37;;;20.87;;
14599;SDS011;7386;45.586;12.854;2023-05-07T04:08:32;23.67;;;19.87;;
14599;SDS011;7386;45.586;12.854;2023-05-07T04:11:00;25.93;;;21.07;;
14599;SDS011;7386;45.586;12.854;2023-05-07T04:13:29;24.07;;;20.07;;
14599;SDS011;7386;45.586;12.854;2023-05-07T04:15:57;21.17;;;18.47;;
14599;SDS011;7386;45.586;12.854;2023-05-07T04:18:27;24.07;;;19.17;;
14599;SDS011;7386;45.586;12.854;2023-05-07T04:20:56;23.57;;;19.13;;
14599;SDS011;7386;45.586;12.854;2023-05-07T04:23:24;23.60;;;18.77;;
14599;SDS011;7386;45.586;12.854;2023-05-07T04:25:53;20.70;;;17.73;;
14599;SDS011;7386;45.586;12.854;2023-05-07T04:28:22;22.83;;;18.33;;
14599;SDS011;7386;45.586;12.854;2023-05-07T04:30:50;21.67;;;18.00;;
14599;SDS011;7386;45.586;12.854;2023-05-07T04:33:19;22.63;;;17.57;;
14599;SDS011;7386;45.586;12.854;2023-05-07T04:35:49;20.83;;;17.50;;
14599;SDS011;7386;45.586;12.854;2023-05-07T04:38:17;21.07;;;17.83;;
14599;SDS011;7386;45.586;12.854;2023-05-07T04:40:46;20.40;;;17.10;;
14599;SDS011;7386;45.586;12.854;2023-05-07T04:43:14;23.03;;;16.47;;
14599;SDS011;7386;45.586;12.854;2023-05-07T04:45:43;19.63;;;17.00;;
14599;SDS011;7386;45.586;12.854;2023-05-07T04:48:11;21.33;;;16.50;;
14599;SDS011;7386;45.586;12.854;2023-05-07T04:50:40;20.13;;;15.47;;
14599;SDS011;7386;45.586;12.854;2023-05-07T04:53:10;18.80;;;15.93;;
14599;SDS011;7386;45.586;12.854;2023-05-07T04:55:39;18.03;;;14.47;;
14599;SDS011;7386;45.586;12.854;2023-05-07T04:58:07;17.83;;;15.27;;
14599;SDS011;7386;45.586;12.854;2023-05-07T05:00:36;16.63;;;14.87;;
14599;SDS011;7386;45.586;12.854;2023-05-07T05:03:05;18.73;;;15.00;;
14599;SDS011;7386;45.586;12.854;2023-05-07T05:05:34;17.87;;;15.33;;
14599;SDS011;7386;45.586;12.854;2023-05-07T05:08:03;17.73;;;14.63;;
14599;SDS011;7386;45.586;12.854;2023-05-07T05:10:32;17.87;;;14.50;;
14599;SDS011;7386;45.586;12.854;2023-05-07T05:13:01;18.80;;;14.90;;
14599;SDS011;7386;45.586;12.854;2023-05-07T05:15:29;16.90;;;14.40;;
14599;SDS011;7386;45.586;12.854;2023-05-07T05:17:59;17.93;;;14.43;;
14599;SDS011;7386;45.586;12.854;2023-05-07T05:20:28;16.67;;;14.73;;
14599;SDS011;7386;45.586;12.854;2023-05-07T05:22:56;19.33;;;15.90;;
14599;SDS011;7386;45.586;12.854;2023-05-07T05:25:24;18.27;;;14.13;;
14599;SDS011;7386;45.586;12.854;2023-05-07T05:27:55;18.40;;;14.77;;
14599;SDS011;7386;45.586;12.854;2023-05-07T05:30:23;17.13;;;13.87;;
14599;SDS011;7386;45.586;12.854;2023-05-07T05:32:52;15.60;;;13.33;;
14599;SDS011;7386;45.586;12.854;2023-05-07T05:35:21;14.63;;;13.03;;
14599;SDS011;7386;45.586;12.854;2023-05-07T05:37:49;14.33;;;12.27;;
14599;SDS011;7386;45.586;12.854;2023-05-07T05:40:18;15.07;;;13.20;;
14599;SDS011;7386;45.586;12.854;2023-05-07T05:42:46;13.77;;;12.30;;
14599;SDS011;7386;45.586;12.854;2023-05-07T05:45:16;18.17;;;12.40;;
14599;SDS011;7386;45.586;12.854;2023-05-07T05:47:45;12.50;;;11.20;;
14599;SDS011;7386;45.586;12.854;2023-05-07T05:50:13;15.63;;;12.50;;
14599;SDS011;7386;45.586;12.854;2023-05-07T05:52:42;13.13;;;11.60;;
14599;SDS011;7386;45.586;12.854;2023-05-07T05:55:10;13.17;;;11.37;;
14599;SDS011;7386;45.586;12.854;2023-05-07T05:57:38;14.07;;;12.57;;
14599;SDS011;7386;45.586;12.854;2023-05-07T06:00:07;14.93;;;12.10;;
14599;SDS011;7386;45.586;12.854;2023-05-07T06:02:38;17.97;;;12.83;;
14599;SDS011;7386;45.586;12.854;2023-05-07T06:05:07;13.60;;;11.87;;
14599;SDS011;7386;45.586;12.854;2023-05-07T06:07:35;14.27;;;12.73;;
14599;SDS011;7386;45.586;12.854;2023-05-07T06:10:04;14.47;;;12.97;;
14599;SDS011;7386;45.586;12.854;2023-05-07T06:12:33;14.37;;;12.87;;
14599;SDS011;7386;45.586;12.854;2023-05-07T06:15:02;14.10;;;12.63;;
14599;SDS011;7386;45.586;12.854;2023-05-07T06:17:30;15.17;;;13.37;;
14599;SDS011;7386;45.586;12.854;2023-05-07T06:20:00;14.70;;;12.70;;
14599;SDS011;7386;45.586;12.854;2023-05-07T06:22:29;14.00;;;12.40;;
14599;SDS011;7386;45.586;12.854;2023-05-07T06:24:57;14.35;;;12.23;;
14599;SDS011;7386;45.586;12.854;2023-05-07T06:27:26;13.38;;;11.98;;
14599;SDS011;7386;45.586;12.854;2023-05-07T06:29:54;14.95;;;13.40;;
14599;SDS011;7386;45.586;12.854;2023-05-07T06:32:23;14.02;;;12.32;;
14599;SDS011;7386;45.586;12.854;2023-05-07T06:34:51;14.45;;;12.95;;
14599;SDS011;7386;45.586;12.854;2023-05-07T06:37:21;15.20;;;13.48;;
14599;SDS011;7386;45.586;12.854;2023-05-07T06:39:50;15.13;;;13.55;;
14599;SDS011;7386;45.586;12.854;2023-05-07T06:42:18;15.35;;;12.77;;
14599;SDS011;7386;45.586;12.854;2023-05-07T06:44:46;12.50;;;10.82;;
14599;SDS011;7386;45.586;12.854;2023-05-07T06:47:15;11.77;;;10.43;;
14599;SDS011;7386;45.586;12.854;2023-05-07T06:49:43;11.35;;;9.98;;
14599;SDS011;7386;45.586;12.854;2023-05-07T06:52:12;11.23;;;9.88;;
14599;SDS011;7386;45.586;12.854;2023-05-07T06:54:42;11.45;;;9.75;;
14599;SDS011;7386;45.586;12.854;2023-05-07T06:57:10;10.50;;;8.38;;
14599;SDS011;7386;45.586;12.854;2023-05-07T06:59:39;11.20;;;9.85;;
14599;SDS011;7386;45.586;12.854;2023-05-07T07:02:07;10.15;;;9.05;;
14599;SDS011;7386;45.586;12.854;2023-05-07T07:04:35;10.48;;;8.88;;
14599;SDS011;7386;45.586;12.854;2023-05-07T07:07:05;10.63;;;8.70;;
14599;SDS011;7386;45.586;12.854;2023-05-07T07:09:33;10.57;;;7.57;;
14599;SDS011;7386;45.586;12.854;2023-05-07T07:12:03;9.18;;;7.53;;
14599;SDS011;7386;45.586;12.854;2023-05-07T07:14:32;8.05;;;7.22;;
14599;SDS011;7386;45.586;12.854;2023-05-07T07:17:00;7.93;;;7.07;;
14599;SDS011;7386;45.586;12.854;2023-05-07T07:19:28;7.80;;;6.95;;
14599;SDS011;7386;45.586;12.854;2023-05-07T07:21:57;8.57;;;7.38;;
14599;SDS011;7386;45.586;12.854;2023-05-07T07:24:25;7.10;;;6.38;;
14599;SDS011;7386;45.586;12.854;2023-05-07T07:26:54;7.70;;;6.55;;
14599;SDS011;7386;45.586;12.854;2023-05-07T07:29:24;7.93;;;6.40;;
14599;SDS011;7386;45.586;12.854;2023-05-07T07:31:53;7.47;;;6.60;;
14599;SDS011;7386;45.586;12.854;2023-05-07T07:34:22;8.20;;;6.90;;
14599;SDS011;7386;45.586;12.854;2023-05-07T07:36:50;7.53;;;6.72;;
14599;SDS011;7386;45.586;12.854;2023-05-07T07:39:19;7.60;;;6.57;;
14599;SDS011;7386;45.586;12.854;2023-05-07T07:41:47;7.82;;;6.82;;
14599;SDS011;7386;45.586;12.854;2023-05-07T07:44:15;7.72;;;6.63;;
14599;SDS011;7386;45.586;12.854;2023-05-07T07:46:45;7.07;;;6.22;;
14599;SDS011;7386;45.586;12.854;2023-05-07T07:49:14;7.90;;;6.63;;
14599;SDS011;7386;45.586;12.854;2023-05-07T07:51:42;8.00;;;6.65;;
14599;SDS011;7386;45.586;12.854;2023-05-07T07:54:11;8.63;;;7.13;;
14599;SDS011;7386;45.586;12.854;2023-05-07T07:56:40;9.02;;;7.95;;
14599;SDS011;7386;45.586;12.854;2023-05-07T07:59:08;9.02;;;7.18;;
14599;SDS011;7386;45.586;12.854;2023-05-07T08:01:37;8.40;;;7.13;;
14599;SDS011;7386;45.586;12.854;2023-05-07T08:04:06;7.95;;;6.80;;
14599;SDS011;7386;45.586;12.854;2023-05-07T08:06:35;6.75;;;6.05;;
14599;SDS011;7386;45.586;12.854;2023-05-07T08:09:04;7.75;;;6.95;;
14599;SDS011;7386;45.586;12.854;2023-05-07T08:11:32;7.85;;;6.35;;
14599;SDS011;7386;45.586;12.854;2023-05-07T08:14:00;7.53;;;6.78;;
14599;SDS011;7386;45.586;12.854;2023-05-07T08:16:29;7.50;;;6.63;;
14599;SDS011;7386;45.586;12.854;2023-05-07T08:18:57;7.65;;;6.25;;
14599;SDS011;7386;45.586;12.854;2023-05-07T08:21:27;7.85;;;7.05;;
14599;SDS011;7386;45.586;12.854;2023-05-07T08:23:59;7.82;;;7.03;;
14599;SDS011;7386;45.586;12.854;2023-05-07T08:26:28;8.52;;;7.53;;
14599;SDS011;7386;45.586;12.854;2023-05-07T08:28:56;8.65;;;7.43;;
14599;SDS011;7386;45.586;12.854;2023-05-07T08:31:25;8.35;;;7.35;;
14599;SDS011;7386;45.586;12.854;2023-05-07T08:33:53;8.07;;;7.28;;
14599;SDS011;7386;45.586;12.854;2023-05-07T08:36:22;7.90;;;7.10;;
14599;SDS011;7386;45.586;12.854;2023-05-07T08:38:52;8.52;;;7.28;;
14599;SDS011;7386;45.586;12.854;2023-05-07T08:41:21;8.40;;;7.47;;
14599;SDS011;7386;45.586;12.854;2023-05-07T08:43:49;8.70;;;7.35;;
14599;SDS011;7386;45.586;12.854;2023-05-07T08:46:19;8.23;;;7.18;;
14599;SDS011;7386;45.586;12.854;2023-05-07T08:48:48;9.23;;;7.20;;
14599;SDS011;7386;45.586;12.854;2023-05-07T08:51:17;7.50;;;6.78;;
14599;SDS011;7386;45.586;12.854;2023-05-07T08:53:46;8.90;;;7.28;;
14599;SDS011;7386;45.586;12.854;2023-05-07T08:56:17;8.63;;;7.63;;
14599;SDS011;7386;45.586;12.854;2023-05-07T08:58:48;8.82;;;7.93;;
14599;SDS011;7386;45.586;12.854;2023-05-07T09:01:16;9.13;;;8.20;;
14599;SDS011;7386;45.586;12.854;2023-05-07T09:03:45;9.48;;;8.15;;
14599;SDS011;7386;45.586;12.854;2023-05-07T09:06:14;8.85;;;7.93;;
14599;SDS011;7386;45.586;12.854;2023-05-07T09:08:44;9.13;;;8.18;;
14599;SDS011;7386;45.586;12.854;2023-05-07T09:11:20;9.13;;;7.35;;
14599;SDS011;7386;45.586;12.854;2023-05-07T09:13:53;8.73;;;7.78;;
14599;SDS011;7386;45.586;12.854;2023-05-07T09:16:22;9.57;;;8.30;;
14599;SDS011;7386;45.586;12.854;2023-05-07T09:18:52;9.52;;;8.18;;
14599;SDS011;7386;45.586;12.854;2023-05-07T09:21:21;9.40;;;7.95;;
14599;SDS011;7386;45.586;12.854;2023-05-07T09:23:50;11.85;;;8.32;;
14599;SDS011;7386;45.586;12.854;2023-05-07T09:26:22;9.35;;;8.13;;
14599;SDS011;7386;45.586;12.854;2023-05-07T09:28:51;9.38;;;7.80;;
14599;SDS011;7386;45.586;12.854;2023-05-07T09:31:19;9.07;;;8.13;;
14599;SDS011;7386;45.586;12.854;2023-05-07T09:33:50;8.90;;;7.57;;
14599;SDS011;7386;45.586;12.854;2023-05-07T09:36:18;9.25;;;7.78;;
14599;SDS011;7386;45.586;12.854;2023-05-07T09:38:47;9.02;;;8.10;;
14599;SDS011;7386;45.586;12.854;2023-05-07T09:41:17;12.15;;;9.00;;
14599;SDS011;7386;45.586;12.854;2023-05-07T09:43:48;11.07;;;9.48;;
14599;SDS011;7386;45.586;12.854;2023-05-07T09:46:23;9.50;;;8.20;;
14599;SDS011;7386;45.586;12.854;2023-05-07T09:48:53;9.15;;;8.25;;
14599;SDS011;7386;45.586;12.854;2023-05-07T09:51:25;9.93;;;8.38;;
14599;SDS011;7386;45.586;12.854;2023-05-07T09:53:57;9.88;;;8.43;;
14599;SDS011;7386;45.586;12.854;2023-05-07T09:56:27;9.25;;;8.35;;
14599;SDS011;7386;45.586;12.854;2023-05-07T09:58:57;9.10;;;8.18;;
14599;SDS011;7386;45.586;12.854;2023-05-07T10:01:27;10.52;;;8.43;;
14599;SDS011;7386;45.586;12.854;2023-05-07T10:03:56;10.40;;;9.30;;
14599;SDS011;7386;45.586;12.854;2023-05-07T10:06:25;10.07;;;9.07;;
14599;SDS011;7386;45.586;12.854;2023-05-07T10:08:54;10.18;;;9.00;;
14599;SDS011;7386;45.586;12.854;2023-05-07T10:11:23;10.20;;;9.05;;
14599;SDS011;7386;45.586;12.854;2023-05-07T10:13:51;8.43;;;7.63;;
14599;SDS011;7386;45.586;12.854;2023-05-07T10:16:21;9.32;;;8.43;;
14599;SDS011;7386;45.586;12.854;2023-05-07T10:18:50;10.20;;;9.20;;
14599;SDS011;7386;45.586;12.854;2023-05-07T10:21:19;9.65;;;8.65;;
14599;SDS011;7386;45.586;12.854;2023-05-07T10:23:48;10.02;;;8.48;;
14599;SDS011;7386;45.586;12.854;2023-05-07T10:26:18;11.45;;;9.27;;
14599;SDS011;7386;45.586;12.854;2023-05-07T10:28:49;13.40;;;10.85;;
14599;SDS011;7386;45.586;12.854;2023-05-07T10:31:26;12.40;;;10.60;;
14599;SDS011;7386;45.586;12.854;2023-05-07T10:33:59;11.05;;;9.85;;
14599;SDS011;7386;45.586;12.854;2023-05-07T10:36:28;10.38;;;9.05;;
14599;SDS011;7386;45.586;12.854;2023-05-07T10:38:57;11.43;;;9.60;;
14599;SDS011;7386;45.586;12.854;2023-05-07T10:41:25;10.50;;;9.43;;
14599;SDS011;7386;45.586;12.854;2023-05-07T10:43:54;10.02;;;9.02;;
14599;SDS011;7386;45.586;12.854;2023-05-07T10:46:24;12.63;;;8.95;;
14599;SDS011;7386;45.586;12.854;2023-05-07T10:51:42;10.30;;;9.30;;
14599;SDS011;7386;45.586;12.854;2023-05-07T10:54:22;10.25;;;9.25;;
14599;SDS011;7386;45.586;12.854;2023-05-07T10:56:53;9.85;;;8.82;;
14599;SDS011;7386;45.586;12.854;2023-05-07T11:02:16;9.30;;;8.40;;
14599;SDS011;7386;45.586;12.854;2023-05-07T11:04:44;9.25;;;8.13;;
14599;SDS011;7386;45.586;12.854;2023-05-07T11:07:26;9.88;;;8.88;;
14599;SDS011;7386;45.586;12.854;2023-05-07T11:10:04;11.55;;;9.73;;
14599;SDS011;7386;45.586;12.854;2023-05-07T11:12:46;13.00;;;10.20;;
14599;SDS011;7386;45.586;12.854;2023-05-07T11:15:15;11.43;;;9.00;;
14599;SDS011;7386;45.586;12.854;2023-05-07T11:18:02;17.92;;;9.38;;
14599;SDS011;7386;45.586;12.854;2023-05-07T11:26:02;9.75;;;8.75;;
14599;SDS011;7386;45.586;12.854;2023-05-07T11:28:31;11.15;;;9.20;;
14599;SDS011;7386;45.586;12.854;2023-05-07T11:31:04;12.60;;;9.55;;
14599;SDS011;7386;45.586;12.854;2023-05-07T11:33:35;12.45;;;9.85;;
14599;SDS011;7386;45.586;12.854;2023-05-07T11:36:04;11.65;;;9.10;;
14599;SDS011;7386;45.586;12.854;2023-05-07T11:38:34;10.45;;;8.85;;
14599;SDS011;7386;45.586;12.854;2023-05-07T11:41:03;11.35;;;9.70;;
14599;SDS011;7386;45.586;12.854;2023-05-07T11:43:31;10.98;;;8.68;;
14599;SDS011;7386;45.586;12.854;2023-05-07T11:46:05;10.27;;;8.43;;
14599;SDS011;7386;45.586;12.854;2023-05-07T11:48:36;11.55;;;9.60;;
14599;SDS011;7386;45.586;12.854;2023-05-07T11:51:05;11.45;;;9.52;;
14599;SDS011;7386;45.586;12.854;2023-05-07T11:53:35;10.27;;;9.05;;
14599;SDS011;7386;45.586;12.854;2023-05-07T11:56:07;9.98;;;8.98;;
14599;SDS011;7386;45.586;12.854;2023-05-07T11:58:36;10.50;;;9.25;;
14599;SDS011;7386;45.586;12.854;2023-05-07T12:01:07;11.52;;;9.38;;
14599;SDS011;7386;45.586;12.854;2023-05-07T12:03:39;10.45;;;9.32;;
14599;SDS011;7386;45.586;12.854;2023-05-07T12:06:09;10.55;;;9.38;;
14599;SDS011;7386;45.586;12.854;2023-05-07T12:08:39;11.07;;;9.98;;
14599;SDS011;7386;45.586;12.854;2023-05-07T12:11:08;11.55;;;10.15;;
14599;SDS011;7386;45.586;12.854;2023-05-07T12:13:38;14.80;;;10.20;;
14599;SDS011;7386;45.586;12.854;2023-05-07T12:16:06;12.27;;;10.18;;
14599;SDS011;7386;45.586;12.854;2023-05-07T12:18:35;15.18;;;10.65;;
14599;SDS011;7386;45.586;12.854;2023-05-07T12:21:05;18.25;;;11.25;;
14599;SDS011;7386;45.586;12.854;2023-05-07T12:23:34;20.63;;;11.57;;
14599;SDS011;7386;45.586;12.854;2023-05-07T12:26:04;23.17;;;11.65;;
14599;SDS011;7386;45.586;12.854;2023-05-07T12:28:36;21.67;;;10.88;;
14599;SDS011;7386;45.586;12.854;2023-05-07T12:31:06;11.85;;;9.90;;
14599;SDS011;7386;45.586;12.854;2023-05-07T12:33:35;12.55;;;9.88;;
14599;SDS011;7386;45.586;12.854;2023-05-07T12:36:06;12.23;;;10.93;;
14599;SDS011;7386;45.586;12.854;2023-05-07T12:38:35;13.25;;;11.85;;
14599;SDS011;7386;45.586;12.854;2023-05-07T12:41:04;16.38;;;11.55;;
14599;SDS011;7386;45.586;12.854;2023-05-07T12:43:33;19.58;;;12.63;;
14599;SDS011;7386;45.586;12.854;2023-05-07T12:46:04;19.65;;;13.25;;
14599;SDS011;7386;45.586;12.854;2023-05-07T12:48:35;21.83;;;14.25;;
14599;SDS011;7386;45.586;12.854;2023-05-07T12:51:05;19.23;;;13.43;;
14599;SDS011;7386;45.586;12.854;2023-05-07T12:53:39;22.88;;;14.88;;
14599;SDS011;7386;45.586;12.854;2023-05-07T12:56:08;18.45;;;14.00;;
14599;SDS011;7386;45.586;12.854;2023-05-07T12:58:37;20.67;;;14.93;;
14599;SDS011;7386;45.586;12.854;2023-05-07T13:01:06;19.27;;;14.93;;
14599;SDS011;7386;45.586;12.854;2023-05-07T13:03:37;18.10;;;14.90;;
14599;SDS011;7386;45.586;12.854;2023-05-07T13:06:07;17.60;;;14.30;;
14599;SDS011;7386;45.586;12.854;2023-05-07T13:08:39;21.13;;;15.88;;
14599;SDS011;7386;45.586;12.854;2023-05-07T13:11:09;20.58;;;15.75;;
14599;SDS011;7386;45.586;12.854;2023-05-07T13:13:39;18.55;;;15.35;;
14599;SDS011;7386;45.586;12.854;2023-05-07T13:16:08;20.98;;;15.13;;
14599;SDS011;7386;45.586;12.854;2023-05-07T13:18:37;19.02;;;15.32;;
14599;SDS011;7386;45.586;12.854;2023-05-07T13:21:08;17.98;;;15.27;;
14599;SDS011;7386;45.586;12.854;2023-05-07T13:23:39;16.00;;;14.38;;
14599;SDS011;7386;45.586;12.854;2023-05-07T13:26:08;15.88;;;14.13;;
14599;SDS011;7386;45.586;12.854;2023-05-07T13:28:51;16.35;;;14.65;;
14599;SDS011;7386;45.586;12.854;2023-05-07T13:31:20;17.35;;;15.05;;
14599;SDS011;7386;45.586;12.854;2023-05-07T13:33:48;18.23;;;14.68;;
14599;SDS011;7386;45.586;12.854;2023-05-07T13:36:18;18.63;;;15.40;;
14599;SDS011;7386;45.586;12.854;2023-05-07T13:38:47;15.90;;;14.27;;
14599;SDS011;7386;45.586;12.854;2023-05-07T13:41:15;16.85;;;14.82;;
14599;SDS011;7386;45.586;12.854;2023-05-07T13:43:44;16.80;;;15.13;;
14599;SDS011;7386;45.586;12.854;2023-05-07T13:46:12;17.13;;;14.95;;
14599;SDS011;7386;45.586;12.854;2023-05-07T13:48:41;16.88;;;15.18;;
14599;SDS011;7386;45.586;12.854;2023-05-07T13:51:09;17.33;;;14.68;;
14599;SDS011;7386;45.586;12.854;2023-05-07T13:53:40;17.15;;;13.85;;
14599;SDS011;7386;45.586;12.854;2023-05-07T13:56:08;15.60;;;14.10;;
14599;SDS011;7386;45.586;12.854;2023-05-07T13:58:37;15.55;;;13.95;;
14599;SDS011;7386;45.586;12.854;2023-05-07T14:01:24;15.15;;;13.57;;
14599;SDS011;7386;45.586;12.854;2023-05-07T14:03:53;15.00;;;13.23;;
14599;SDS011;7386;45.586;12.854;2023-05-07T14:06:21;14.90;;;13.40;;
14599;SDS011;7386;45.586;12.854;2023-05-07T14:08:51;14.60;;;13.10;;
14599;SDS011;7386;45.586;12.854;2023-05-07T14:11:20;14.43;;;12.98;;
14599;SDS011;7386;45.586;12.854;2023-05-07T14:13:48;14.10;;;12.70;;
14599;SDS011;7386;45.586;12.854;2023-05-07T14:16:17;13.68;;;12.18;;
14599;SDS011;7386;45.586;12.854;2023-05-07T14:18:45;14.10;;;12.68;;
14599;SDS011;7386;45.586;12.854;2023-05-07T14:21:14;14.30;;;12.85;;
14599;SDS011;7386;45.586;12.854;2023-05-07T14:23:42;14.20;;;12.75;;
14599;SDS011;7386;45.586;12.854;2023-05-07T14:26:12;13.98;;;12.57;;
14599;SDS011;7386;45.586;12.854;2023-05-07T14:28:40;14.30;;;12.80;;
14599;SDS011;7386;45.586;12.854;2023-05-07T14:31:12;13.55;;;12.15;;
14599;SDS011;7386;45.586;12.854;2023-05-07T14:33:41;13.98;;;12.52;;
14599;SDS011;7386;45.586;12.854;2023-05-07T14:36:10;13.63;;;12.23;;
14599;SDS011;7386;45.586;12.854;2023-05-07T14:38:38;15.52;;;13.85;;
14599;SDS011;7386;45.586;12.854;2023-05-07T14:41:07;15.23;;;13.63;;
14599;SDS011;7386;45.586;12.854;2023-05-07T14:43:36;14.32;;;12.82;;
14599;SDS011;7386;45.586;12.854;2023-05-07T14:46:05;14.00;;;12.60;;
14599;SDS011;7386;45.586;12.854;2023-05-07T14:48:33;14.60;;;13.10;;
14599;SDS011;7386;45.586;12.854;2023-05-07T14:51:02;14.50;;;13.00;;